sensor_id;sensor_type;location;lat;lon;timestamp;P1;durP1;ratioP1;P2;durP2;ratioP2
77117;SDS011;66072;50.238;19.228;2023-03-23T00:00:01;31.70;;;20.10;;
77117;SDS011;66072;50.238;19.228;2023-03-23T00:02:29;34.50;;;19.80;;
77117;SDS011;66072;50.238;19.228;2023-03-23T00:04:57;31.00;;;19.20;;
77117;SDS011;66072;50.238;19.228;2023-03-23T00:07:23;28.40;;;18.00;;
77117;SDS011;66072;50.238;19.228;2023-03-23T00:09:50;30.10;;;19.30;;
77117;SDS011;66072;50.238;19.228;2023-03-23T00:12:16;28.40;;;18.10;;
77117;SDS011;66072;50.238;19.228;2023-03-23T00:14:43;29.10;;;18.40;;
77117;SDS011;66072;50.238;19.228;2023-03-23T00:17:10;27.10;;;16.80;;
77117;SDS011;66072;50.238;19.228;2023-03-23T00:19:37;26.80;;;17.80;;
77117;SDS011;66072;50.238;19.228;2023-03-23T00:22:04;27.00;;;16.10;;
77117;SDS011;66072;50.238;19.228;2023-03-23T00:24:31;24.70;;;16.10;;
77117;SDS011;66072;50.238;19.228;2023-03-23T00:26:57;33.60;;;21.10;;
77117;SDS011;66072;50.238;19.228;2023-03-23T00:29:23;27.70;;;19.40;;
77117;SDS011;66072;50.238;19.228;2023-03-23T00:31:50;29.30;;;20.10;;
77117;SDS011;66072;50.238;19.228;2023-03-23T00:34:18;35.10;;;22.20;;
77117;SDS011;66072;50.238;19.228;2023-03-23T00:36:46;35.90;;;22.90;;
77117;SDS011;66072;50.238;19.228;2023-03-23T00:39:14;34.30;;;21.70;;
77117;SDS011;66072;50.238;19.228;2023-03-23T00:41:42;35.00;;;25.90;;
77117;SDS011;66072;50.238;19.228;2023-03-23T00:44:09;34.00;;;26.40;;
77117;SDS011;66072;50.238;19.228;2023-03-23T00:46:35;35.50;;;26.10;;
77117;SDS011;66072;50.238;19.228;2023-03-23T00:49:02;34.70;;;24.80;;
77117;SDS011;66072;50.238;19.228;2023-03-23T00:51:28;36.30;;;25.40;;
77117;SDS011;66072;50.238;19.228;2023-03-23T00:53:55;36.20;;;25.80;;
77117;SDS011;66072;50.238;19.228;2023-03-23T00:56:21;37.60;;;27.70;;
77117;SDS011;66072;50.238;19.228;2023-03-23T00:58:47;37.30;;;26.50;;
77117;SDS011;66072;50.238;19.228;2023-03-23T01:01:14;40.20;;;27.00;;
77117;SDS011;66072;50.238;19.228;2023-03-23T01:03:40;36.10;;;26.90;;
77117;SDS011;66072;50.238;19.228;2023-03-23T01:06:08;42.10;;;29.50;;
77117;SDS011;66072;50.238;19.228;2023-03-23T01:08:35;38.80;;;28.60;;
77117;SDS011;66072;50.238;19.228;2023-03-23T01:11:04;35.60;;;25.40;;
77117;SDS011;66072;50.238;19.228;2023-03-23T01:13:32;33.80;;;23.00;;
77117;SDS011;66072;50.238;19.228;2023-03-23T01:15:58;40.90;;;28.20;;
77117;SDS011;66072;50.238;19.228;2023-03-23T01:18:25;31.70;;;21.20;;
77117;SDS011;66072;50.238;19.228;2023-03-23T01:20:52;30.50;;;21.90;;
77117;SDS011;66072;50.238;19.228;2023-03-23T01:23:18;31.60;;;20.50;;
77117;SDS011;66072;50.238;19.228;2023-03-23T01:25:45;30.30;;;20.70;;
77117;SDS011;66072;50.238;19.228;2023-03-23T01:28:11;32.80;;;21.90;;
77117;SDS011;66072;50.238;19.228;2023-03-23T01:30:37;34.10;;;24.70;;
77117;SDS011;66072;50.238;19.228;2023-03-23T01:33:04;38.60;;;26.50;;
77117;SDS011;66072;50.238;19.228;2023-03-23T01:35:30;34.80;;;23.50;;
77117;SDS011;66072;50.238;19.228;2023-03-23T01:37:57;35.60;;;23.30;;
77117;SDS011;66072;50.238;19.228;2023-03-23T01:40:26;36.70;;;24.90;;
77117;SDS011;66072;50.238;19.228;2023-03-23T01:42:53;39.90;;;24.00;;
77117;SDS011;66072;50.238;19.228;2023-03-23T01:47:49;35.30;;;23.10;;
77117;SDS011;66072;50.238;19.228;2023-03-23T01:50:21;34.80;;;20.80;;
77117;SDS011;66072;50.238;19.228;2023-03-23T01:52:51;34.60;;;22.60;;
77117;SDS011;66072;50.238;19.228;2023-03-23T01:55:19;31.20;;;20.80;;
77117;SDS011;66072;50.238;19.228;2023-03-23T01:57:47;35.30;;;22.40;;
77117;SDS011;66072;50.238;19.228;2023-03-23T02:00:14;31.90;;;21.10;;
77117;SDS011;66072;50.238;19.228;2023-03-23T02:02:42;34.00;;;22.60;;
77117;SDS011;66072;50.238;19.228;2023-03-23T02:05:11;36.50;;;23.70;;
77117;SDS011;66072;50.238;19.228;2023-03-23T02:07:41;33.60;;;22.60;;
77117;SDS011;66072;50.238;19.228;2023-03-23T02:10:08;33.10;;;21.00;;
77117;SDS011;66072;50.238;19.228;2023-03-23T02:12:34;26.90;;;18.30;;
77117;SDS011;66072;50.238;19.228;2023-03-23T02:15:01;28.80;;;18.10;;
77117;SDS011;66072;50.238;19.228;2023-03-23T02:21:05;33.00;;;18.10;;
77117;SDS011;66072;50.238;19.228;2023-03-23T02:34:53;29.30;;;18.20;;
77117;SDS011;66072;50.238;19.228;2023-03-23T02:37:32;31.80;;;18.80;;
77117;SDS011;66072;50.238;19.228;2023-03-23T02:40:05;25.70;;;15.20;;
77117;SDS011;66072;50.238;19.228;2023-03-23T02:42:36;27.90;;;15.70;;
77117;SDS011;66072;50.238;19.228;2023-03-23T02:45:07;27.20;;;17.20;;
77117;SDS011;66072;50.238;19.228;2023-03-23T02:47:37;24.60;;;15.30;;
77117;SDS011;66072;50.238;19.228;2023-03-23T02:50:07;22.60;;;14.50;;
77117;SDS011;66072;50.238;19.228;2023-03-23T02:52:39;25.90;;;15.80;;
77117;SDS011;66072;50.238;19.228;2023-03-23T02:55:08;22.80;;;15.20;;
77117;SDS011;66072;50.238;19.228;2023-03-23T02:57:38;26.50;;;16.30;;
77117;SDS011;66072;50.238;19.228;2023-03-23T03:00:05;29.90;;;18.00;;
77117;SDS011;66072;50.238;19.228;2023-03-23T03:02:34;26.80;;;17.60;;
77117;SDS011;66072;50.238;19.228;2023-03-23T03:12:59;27.90;;;18.80;;
77117;SDS011;66072;50.238;19.228;2023-03-23T03:15:41;29.80;;;18.50;;
77117;SDS011;66072;50.238;19.228;2023-03-23T03:18:18;24.70;;;16.00;;
77117;SDS011;66072;50.238;19.228;2023-03-23T03:21:07;23.10;;;14.90;;
77117;SDS011;66072;50.238;19.228;2023-03-23T03:23:38;26.50;;;15.90;;
77117;SDS011;66072;50.238;19.228;2023-03-23T03:26:10;27.10;;;14.80;;
77117;SDS011;66072;50.238;19.228;2023-03-23T03:28:38;26.70;;;15.80;;
77117;SDS011;66072;50.238;19.228;2023-03-23T03:31:05;25.80;;;15.60;;
77117;SDS011;66072;50.238;19.228;2023-03-23T03:33:32;25.20;;;15.70;;
77117;SDS011;66072;50.238;19.228;2023-03-23T03:36:00;24.80;;;16.00;;
77117;SDS011;66072;50.238;19.228;2023-03-23T03:38:29;19.50;;;12.50;;
77117;SDS011;66072;50.238;19.228;2023-03-23T03:40:56;19.20;;;13.00;;
77117;SDS011;66072;50.238;19.228;2023-03-23T03:43:22;23.20;;;15.30;;
77117;SDS011;66072;50.238;19.228;2023-03-23T03:45:49;23.20;;;14.70;;
77117;SDS011;66072;50.238;19.228;2023-03-23T03:48:16;21.60;;;13.30;;
77117;SDS011;66072;50.238;19.228;2023-03-23T03:50:42;23.20;;;14.10;;
77117;SDS011;66072;50.238;19.228;2023-03-23T03:53:09;22.90;;;13.50;;
77117;SDS011;66072;50.238;19.228;2023-03-23T03:55:35;24.80;;;15.60;;
77117;SDS011;66072;50.238;19.228;2023-03-23T03:58:02;25.50;;;14.40;;
77117;SDS011;66072;50.238;19.228;2023-03-23T04:00:29;24.40;;;14.20;;
77117;SDS011;66072;50.238;19.228;2023-03-23T04:02:55;24.00;;;16.20;;
77117;SDS011;66072;50.238;19.228;2023-03-23T04:05:22;21.90;;;13.90;;
77117;SDS011;66072;50.238;19.228;2023-03-23T04:07:49;21.10;;;12.70;;
77117;SDS011;66072;50.238;19.228;2023-03-23T04:10:16;23.80;;;15.50;;
77117;SDS011;66072;50.238;19.228;2023-03-23T04:12:42;20.70;;;14.20;;
77117;SDS011;66072;50.238;19.228;2023-03-23T04:15:09;21.80;;;14.70;;
77117;SDS011;66072;50.238;19.228;2023-03-23T04:17:35;24.10;;;16.10;;
77117;SDS011;66072;50.238;19.228;2023-03-23T04:20:02;21.20;;;15.90;;
77117;SDS011;66072;50.238;19.228;2023-03-23T04:22:30;28.90;;;18.00;;
77117;SDS011;66072;50.238;19.228;2023-03-23T04:24:57;27.70;;;16.70;;
77117;SDS011;66072;50.238;19.228;2023-03-23T04:27:24;28.40;;;18.40;;
77117;SDS011;66072;50.238;19.228;2023-03-23T04:29:52;27.10;;;17.80;;
77117;SDS011;66072;50.238;19.228;2023-03-23T04:32:18;25.90;;;17.10;;
77117;SDS011;66072;50.238;19.228;2023-03-23T04:34:45;25.10;;;17.50;;
77117;SDS011;66072;50.238;19.228;2023-03-23T04:37:11;26.60;;;16.10;;
77117;SDS011;66072;50.238;19.228;2023-03-23T04:39:38;28.30;;;18.30;;
77117;SDS011;66072;50.238;19.228;2023-03-23T04:42:04;23.70;;;15.30;;
77117;SDS011;66072;50.238;19.228;2023-03-23T04:44:31;24.30;;;17.00;;
77117;SDS011;66072;50.238;19.228;2023-03-23T04:46:57;29.00;;;19.70;;
77117;SDS011;66072;50.238;19.228;2023-03-23T04:49:24;27.20;;;18.10;;
77117;SDS011;66072;50.238;19.228;2023-03-23T04:51:50;24.40;;;15.40;;
77117;SDS011;66072;50.238;19.228;2023-03-23T04:54:17;32.10;;;20.70;;
77117;SDS011;66072;50.238;19.228;2023-03-23T04:56:43;28.30;;;18.40;;
77117;SDS011;66072;50.238;19.228;2023-03-23T04:59:10;31.10;;;19.10;;
77117;SDS011;66072;50.238;19.228;2023-03-23T05:01:36;30.40;;;19.50;;
77117;SDS011;66072;50.238;19.228;2023-03-23T05:04:03;26.50;;;18.40;;
77117;SDS011;66072;50.238;19.228;2023-03-23T05:06:29;31.10;;;18.60;;
77117;SDS011;66072;50.238;19.228;2023-03-23T05:08:56;27.50;;;18.10;;
77117;SDS011;66072;50.238;19.228;2023-03-23T05:11:22;23.70;;;15.00;;
77117;SDS011;66072;50.238;19.228;2023-03-23T05:13:50;21.60;;;14.10;;
77117;SDS011;66072;50.238;19.228;2023-03-23T05:16:16;20.50;;;13.90;;
77117;SDS011;66072;50.238;19.228;2023-03-23T05:18:42;18.50;;;12.50;;
77117;SDS011;66072;50.238;19.228;2023-03-23T05:21:09;20.60;;;14.90;;
77117;SDS011;66072;50.238;19.228;2023-03-23T05:23:35;20.90;;;13.60;;
77117;SDS011;66072;50.238;19.228;2023-03-23T05:26:02;19.70;;;13.50;;
77117;SDS011;66072;50.238;19.228;2023-03-23T05:28:28;26.00;;;14.90;;
77117;SDS011;66072;50.238;19.228;2023-03-23T05:30:55;22.40;;;14.50;;
77117;SDS011;66072;50.238;19.228;2023-03-23T05:33:22;23.00;;;14.80;;
77117;SDS011;66072;50.238;19.228;2023-03-23T05:35:49;27.20;;;17.00;;
77117;SDS011;66072;50.238;19.228;2023-03-23T05:38:16;27.80;;;16.40;;
77117;SDS011;66072;50.238;19.228;2023-03-23T05:40:42;27.40;;;18.10;;
77117;SDS011;66072;50.238;19.228;2023-03-23T05:43:09;26.30;;;16.70;;
77117;SDS011;66072;50.238;19.228;2023-03-23T05:45:36;20.80;;;14.70;;
77117;SDS011;66072;50.238;19.228;2023-03-23T05:48:02;27.10;;;17.10;;
77117;SDS011;66072;50.238;19.228;2023-03-23T05:50:29;22.80;;;16.80;;
77117;SDS011;66072;50.238;19.228;2023-03-23T05:52:55;20.40;;;13.90;;
77117;SDS011;66072;50.238;19.228;2023-03-23T05:55:22;24.20;;;15.90;;
77117;SDS011;66072;50.238;19.228;2023-03-23T05:57:48;25.40;;;15.20;;
77117;SDS011;66072;50.238;19.228;2023-03-23T06:00:15;23.30;;;15.20;;
77117;SDS011;66072;50.238;19.228;2023-03-23T06:02:41;21.20;;;13.50;;
77117;SDS011;66072;50.238;19.228;2023-03-23T06:05:08;21.20;;;13.60;;
77117;SDS011;66072;50.238;19.228;2023-03-23T06:07:35;22.40;;;14.50;;
77117;SDS011;66072;50.238;19.228;2023-03-23T06:10:02;21.50;;;14.60;;
77117;SDS011;66072;50.238;19.228;2023-03-23T06:12:28;20.40;;;14.20;;
77117;SDS011;66072;50.238;19.228;2023-03-23T06:14:55;20.20;;;14.70;;
77117;SDS011;66072;50.238;19.228;2023-03-23T06:17:21;20.60;;;14.40;;
77117;SDS011;66072;50.238;19.228;2023-03-23T06:19:48;19.50;;;14.00;;
77117;SDS011;66072;50.238;19.228;2023-03-23T06:22:14;20.40;;;13.20;;
77117;SDS011;66072;50.238;19.228;2023-03-23T06:24:41;17.10;;;11.50;;
77117;SDS011;66072;50.238;19.228;2023-03-23T06:27:07;18.50;;;12.20;;
77117;SDS011;66072;50.238;19.228;2023-03-23T06:29:34;20.70;;;13.70;;
77117;SDS011;66072;50.238;19.228;2023-03-23T06:32:01;19.20;;;12.50;;
77117;SDS011;66072;50.238;19.228;2023-03-23T06:34:30;20.60;;;12.90;;
77117;SDS011;66072;50.238;19.228;2023-03-23T06:36:57;17.70;;;13.30;;
77117;SDS011;66072;50.238;19.228;2023-03-23T06:39:23;19.80;;;12.50;;
77117;SDS011;66072;50.238;19.228;2023-03-23T06:41:51;20.50;;;13.30;;
77117;SDS011;66072;50.238;19.228;2023-03-23T06:44:17;17.70;;;11.00;;
77117;SDS011;66072;50.238;19.228;2023-03-23T06:46:44;12.40;;;8.90;;
77117;SDS011;66072;50.238;19.228;2023-03-23T06:49:10;18.80;;;11.20;;
77117;SDS011;66072;50.238;19.228;2023-03-23T06:51:36;19.50;;;13.00;;
77117;SDS011;66072;50.238;19.228;2023-03-23T06:54:03;21.10;;;13.70;;
77117;SDS011;66072;50.238;19.228;2023-03-23T06:56:30;15.70;;;10.80;;
77117;SDS011;66072;50.238;19.228;2023-03-23T06:58:57;18.80;;;12.70;;
77117;SDS011;66072;50.238;19.228;2023-03-23T07:01:24;16.00;;;10.70;;
77117;SDS011;66072;50.238;19.228;2023-03-23T07:03:50;17.80;;;12.10;;
77117;SDS011;66072;50.238;19.228;2023-03-23T07:06:17;16.80;;;12.50;;
77117;SDS011;66072;50.238;19.228;2023-03-23T07:08:43;18.10;;;12.60;;
77117;SDS011;66072;50.238;19.228;2023-03-23T07:11:09;17.70;;;12.10;;
77117;SDS011;66072;50.238;19.228;2023-03-23T07:13:36;17.60;;;11.90;;
77117;SDS011;66072;50.238;19.228;2023-03-23T07:16:04;22.50;;;14.10;;
77117;SDS011;66072;50.238;19.228;2023-03-23T07:18:31;20.50;;;13.20;;
77117;SDS011;66072;50.238;19.228;2023-03-23T07:20:58;19.20;;;12.40;;
77117;SDS011;66072;50.238;19.228;2023-03-23T07:23:25;18.90;;;12.80;;
77117;SDS011;66072;50.238;19.228;2023-03-23T07:25:51;18.10;;;12.70;;
77117;SDS011;66072;50.238;19.228;2023-03-23T07:28:18;18.50;;;12.90;;
77117;SDS011;66072;50.238;19.228;2023-03-23T07:30:44;20.60;;;14.80;;
77117;SDS011;66072;50.238;19.228;2023-03-23T07:33:11;19.60;;;13.10;;
77117;SDS011;66072;50.238;19.228;2023-03-23T07:35:38;19.40;;;12.80;;
77117;SDS011;66072;50.238;19.228;2023-03-23T07:38:05;20.90;;;14.20;;
77117;SDS011;66072;50.238;19.228;2023-03-23T07:40:32;19.70;;;13.70;;
77117;SDS011;66072;50.238;19.228;2023-03-23T07:43:00;17.20;;;11.10;;
77117;SDS011;66072;50.238;19.228;2023-03-23T07:45:28;19.00;;;12.70;;
77117;SDS011;66072;50.238;19.228;2023-03-23T07:47:55;21.40;;;13.70;;
77117;SDS011;66072;50.238;19.228;2023-03-23T07:50:22;20.50;;;14.80;;
77117;SDS011;66072;50.238;19.228;2023-03-23T07:52:49;20.00;;;13.30;;
77117;SDS011;66072;50.238;19.228;2023-03-23T07:55:16;18.70;;;13.20;;
77117;SDS011;66072;50.238;19.228;2023-03-23T07:57:44;19.00;;;12.90;;
77117;SDS011;66072;50.238;19.228;2023-03-23T08:00:11;20.30;;;13.80;;
77117;SDS011;66072;50.238;19.228;2023-03-23T08:02:38;19.20;;;13.20;;
77117;SDS011;66072;50.238;19.228;2023-03-23T08:05:04;22.00;;;14.20;;
77117;SDS011;66072;50.238;19.228;2023-03-23T08:07:31;21.90;;;13.60;;
77117;SDS011;66072;50.238;19.228;2023-03-23T08:09:57;17.50;;;13.30;;
77117;SDS011;66072;50.238;19.228;2023-03-23T08:12:24;17.80;;;12.90;;
77117;SDS011;66072;50.238;19.228;2023-03-23T08:14:50;19.50;;;12.70;;
77117;SDS011;66072;50.238;19.228;2023-03-23T08:17:17;20.40;;;12.60;;
77117;SDS011;66072;50.238;19.228;2023-03-23T08:19:43;16.50;;;10.50;;
77117;SDS011;66072;50.238;19.228;2023-03-23T08:22:10;19.60;;;13.10;;
77117;SDS011;66072;50.238;19.228;2023-03-23T08:24:36;19.50;;;13.70;;
77117;SDS011;66072;50.238;19.228;2023-03-23T08:27:03;20.10;;;15.40;;
77117;SDS011;66072;50.238;19.228;2023-03-23T08:29:30;15.90;;;10.50;;
77117;SDS011;66072;50.238;19.228;2023-03-23T08:31:57;15.20;;;12.20;;
77117;SDS011;66072;50.238;19.228;2023-03-23T08:34:24;13.40;;;9.80;;
77117;SDS011;66072;50.238;19.228;2023-03-23T08:36:50;16.80;;;11.00;;
77117;SDS011;66072;50.238;19.228;2023-03-23T08:39:17;17.50;;;11.20;;
77117;SDS011;66072;50.238;19.228;2023-03-23T08:41:44;10.10;;;7.50;;
77117;SDS011;66072;50.238;19.228;2023-03-23T08:44:11;10.40;;;6.70;;
77117;SDS011;66072;50.238;19.228;2023-03-23T08:46:37;12.60;;;8.70;;
77117;SDS011;66072;50.238;19.228;2023-03-23T08:49:04;14.40;;;10.10;;
77117;SDS011;66072;50.238;19.228;2023-03-23T08:51:30;11.20;;;7.70;;
77117;SDS011;66072;50.238;19.228;2023-03-23T08:53:57;12.10;;;7.40;;
77117;SDS011;66072;50.238;19.228;2023-03-23T08:56:23;11.00;;;6.30;;
77117;SDS011;66072;50.238;19.228;2023-03-23T08:58:50;7.80;;;4.90;;
77117;SDS011;66072;50.238;19.228;2023-03-23T09:01:17;7.10;;;4.80;;
77117;SDS011;66072;50.238;19.228;2023-03-23T09:03:43;7.50;;;5.00;;
77117;SDS011;66072;50.238;19.228;2023-03-23T09:06:10;7.40;;;5.10;;
77117;SDS011;66072;50.238;19.228;2023-03-23T09:08:37;9.70;;;5.50;;
77117;SDS011;66072;50.238;19.228;2023-03-23T09:11:05;7.40;;;4.20;;
77117;SDS011;66072;50.238;19.228;2023-03-23T09:13:34;6.10;;;4.10;;
77117;SDS011;66072;50.238;19.228;2023-03-23T09:16:01;6.30;;;4.50;;
77117;SDS011;66072;50.238;19.228;2023-03-23T09:18:28;6.10;;;4.50;;
77117;SDS011;66072;50.238;19.228;2023-03-23T09:20:55;6.00;;;3.60;;
77117;SDS011;66072;50.238;19.228;2023-03-23T09:23:21;7.40;;;4.30;;
77117;SDS011;66072;50.238;19.228;2023-03-23T09:25:48;7.00;;;4.10;;
77117;SDS011;66072;50.238;19.228;2023-03-23T09:28:14;6.30;;;4.00;;
77117;SDS011;66072;50.238;19.228;2023-03-23T09:30:41;6.90;;;4.50;;
77117;SDS011;66072;50.238;19.228;2023-03-23T09:33:07;5.80;;;3.70;;
77117;SDS011;66072;50.238;19.228;2023-03-23T09:35:34;9.00;;;3.80;;
77117;SDS011;66072;50.238;19.228;2023-03-23T09:38:02;6.40;;;3.40;;
77117;SDS011;66072;50.238;19.228;2023-03-23T09:40:33;5.20;;;3.60;;
77117;SDS011;66072;50.238;19.228;2023-03-23T09:48:59;7.00;;;3.90;;
77117;SDS011;66072;50.238;19.228;2023-03-23T09:51:34;5.90;;;3.60;;
77117;SDS011;66072;50.238;19.228;2023-03-23T09:56:52;6.60;;;3.80;;
77117;SDS011;66072;50.238;19.228;2023-03-23T10:04:52;5.30;;;3.50;;
77117;SDS011;66072;50.238;19.228;2023-03-23T10:07:22;6.50;;;4.10;;
77117;SDS011;66072;50.238;19.228;2023-03-23T10:09:58;6.20;;;3.70;;
77117;SDS011;66072;50.238;19.228;2023-03-23T10:12:33;7.80;;;3.80;;
77117;SDS011;66072;50.238;19.228;2023-03-23T10:15:16;6.90;;;3.10;;
77117;SDS011;66072;50.238;19.228;2023-03-23T10:20:53;6.80;;;3.50;;
77117;SDS011;66072;50.238;19.228;2023-03-23T10:31:37;6.10;;;3.30;;
77117;SDS011;66072;50.238;19.228;2023-03-23T10:34:17;6.60;;;4.20;;
77117;SDS011;66072;50.238;19.228;2023-03-23T10:39:48;10.40;;;4.00;;
77117;SDS011;66072;50.238;19.228;2023-03-23T10:42:22;6.50;;;3.30;;
77117;SDS011;66072;50.238;19.228;2023-03-23T10:44:50;7.10;;;3.90;;
77117;SDS011;66072;50.238;19.228;2023-03-23T10:47:17;5.90;;;3.10;;
77117;SDS011;66072;50.238;19.228;2023-03-23T10:49:45;15.80;;;3.40;;
77117;SDS011;66072;50.238;19.228;2023-03-23T10:52:35;5.80;;;2.40;;
77117;SDS011;66072;50.238;19.228;2023-03-23T10:55:05;5.60;;;2.50;;
77117;SDS011;66072;50.238;19.228;2023-03-23T10:57:35;6.40;;;2.40;;
77117;SDS011;66072;50.238;19.228;2023-03-23T11:02:47;7.00;;;2.40;;
77117;SDS011;66072;50.238;19.228;2023-03-23T11:05:36;6.60;;;2.90;;
77117;SDS011;66072;50.238;19.228;2023-03-23T11:08:10;4.80;;;2.30;;
77117;SDS011;66072;50.238;19.228;2023-03-23T11:10:49;5.70;;;2.50;;
77117;SDS011;66072;50.238;19.228;2023-03-23T11:13:18;7.20;;;2.60;;
77117;SDS011;66072;50.238;19.228;2023-03-23T11:15:47;7.20;;;3.50;;
77117;SDS011;66072;50.238;19.228;2023-03-23T11:18:22;6.20;;;2.50;;
77117;SDS011;66072;50.238;19.228;2023-03-23T11:20:54;5.80;;;2.50;;
77117;SDS011;66072;50.238;19.228;2023-03-23T11:26:00;5.90;;;2.80;;
77117;SDS011;66072;50.238;19.228;2023-03-23T11:28:29;8.10;;;3.00;;
77117;SDS011;66072;50.238;19.228;2023-03-23T11:31:02;7.00;;;3.00;;
77117;SDS011;66072;50.238;19.228;2023-03-23T11:33:47;5.90;;;2.90;;
77117;SDS011;66072;50.238;19.228;2023-03-23T11:36:32;6.80;;;2.80;;
77117;SDS011;66072;50.238;19.228;2023-03-23T11:39:03;5.30;;;2.40;;
77117;SDS011;66072;50.238;19.228;2023-03-23T11:41:46;6.40;;;2.80;;
77117;SDS011;66072;50.238;19.228;2023-03-23T11:44:13;7.40;;;3.20;;
77117;SDS011;66072;50.238;19.228;2023-03-23T11:46:48;4.30;;;2.30;;
77117;SDS011;66072;50.238;19.228;2023-03-23T11:49:28;4.70;;;2.60;;
77117;SDS011;66072;50.238;19.228;2023-03-23T11:52:05;5.30;;;2.60;;
77117;SDS011;66072;50.238;19.228;2023-03-23T11:54:57;5.50;;;2.80;;
77117;SDS011;66072;50.238;19.228;2023-03-23T11:57:29;5.70;;;2.70;;
77117;SDS011;66072;50.238;19.228;2023-03-23T11:59:56;6.80;;;2.90;;
77117;SDS011;66072;50.238;19.228;2023-03-23T12:10:45;5.60;;;3.10;;
77117;SDS011;66072;50.238;19.228;2023-03-23T12:27:52;3.90;;;2.20;;
77117;SDS011;66072;50.238;19.228;2023-03-23T12:42:22;5.60;;;2.40;;
77117;SDS011;66072;50.238;19.228;2023-03-23T12:47:35;4.10;;;1.90;;
77117;SDS011;66072;50.238;19.228;2023-03-23T12:50:16;7.80;;;3.40;;
77117;SDS011;66072;50.238;19.228;2023-03-23T12:55:29;6.50;;;3.40;;
77117;SDS011;66072;50.238;19.228;2023-03-23T12:58:12;4.40;;;2.70;;
77117;SDS011;66072;50.238;19.228;2023-03-23T13:03:11;7.30;;;3.20;;
77117;SDS011;66072;50.238;19.228;2023-03-23T13:05:59;5.30;;;2.20;;
77117;SDS011;66072;50.238;19.228;2023-03-23T13:08:40;5.80;;;2.90;;
77117;SDS011;66072;50.238;19.228;2023-03-23T13:11:18;5.20;;;2.60;;
77117;SDS011;66072;50.238;19.228;2023-03-23T13:13:52;4.60;;;2.40;;
77117;SDS011;66072;50.238;19.228;2023-03-23T13:16:31;5.20;;;2.80;;
77117;SDS011;66072;50.238;19.228;2023-03-23T13:24:19;4.90;;;2.30;;
77117;SDS011;66072;50.238;19.228;2023-03-23T13:26:49;4.60;;;2.40;;
77117;SDS011;66072;50.238;19.228;2023-03-23T13:29:20;4.80;;;2.50;;
77117;SDS011;66072;50.238;19.228;2023-03-23T13:31:48;6.00;;;2.90;;
77117;SDS011;66072;50.238;19.228;2023-03-23T13:36:52;5.80;;;2.70;;
77117;SDS011;66072;50.238;19.228;2023-03-23T13:44:55;8.80;;;2.90;;
77117;SDS011;66072;50.238;19.228;2023-03-23T13:47:35;4.50;;;2.20;;
77117;SDS011;66072;50.238;19.228;2023-03-23T13:50:10;5.20;;;2.70;;
77117;SDS011;66072;50.238;19.228;2023-03-23T14:05:32;5.20;;;2.10;;
77117;SDS011;66072;50.238;19.228;2023-03-23T14:08:03;3.90;;;2.20;;
77117;SDS011;66072;50.238;19.228;2023-03-23T14:10:55;4.30;;;2.50;;
77117;SDS011;66072;50.238;19.228;2023-03-23T14:13:24;5.40;;;2.20;;
77117;SDS011;66072;50.238;19.228;2023-03-23T14:18:35;4.90;;;2.90;;
77117;SDS011;66072;50.238;19.228;2023-03-23T14:21:04;6.80;;;2.90;;
77117;SDS011;66072;50.238;19.228;2023-03-23T14:23:32;3.70;;;2.20;;
77117;SDS011;66072;50.238;19.228;2023-03-23T14:26:01;5.30;;;2.70;;
77117;SDS011;66072;50.238;19.228;2023-03-23T14:28:39;4.70;;;2.60;;
77117;SDS011;66072;50.238;19.228;2023-03-23T14:31:31;8.40;;;3.90;;
77117;SDS011;66072;50.238;19.228;2023-03-23T14:33:56;7.40;;;4.20;;
77117;SDS011;66072;50.238;19.228;2023-03-23T14:36:27;4.30;;;2.30;;
77117;SDS011;66072;50.238;19.228;2023-03-23T14:39:07;5.80;;;3.30;;
77117;SDS011;66072;50.238;19.228;2023-03-23T14:41:42;6.20;;;3.40;;
77117;SDS011;66072;50.238;19.228;2023-03-23T14:44:12;6.20;;;3.40;;
77117;SDS011;66072;50.238;19.228;2023-03-23T14:46:41;9.70;;;4.00;;
77117;SDS011;66072;50.238;19.228;2023-03-23T14:49:12;5.90;;;3.20;;
77117;SDS011;66072;50.238;19.228;2023-03-23T14:51:48;8.00;;;3.80;;
77117;SDS011;66072;50.238;19.228;2023-03-23T14:54:18;8.20;;;3.60;;
77117;SDS011;66072;50.238;19.228;2023-03-23T14:56:48;5.00;;;2.80;;
77117;SDS011;66072;50.238;19.228;2023-03-23T14:59:14;7.50;;;3.10;;
77117;SDS011;66072;50.238;19.228;2023-03-23T15:01:41;5.90;;;2.80;;
77117;SDS011;66072;50.238;19.228;2023-03-23T15:06:45;8.30;;;4.10;;
77117;SDS011;66072;50.238;19.228;2023-03-23T15:09:18;6.00;;;3.30;;
77117;SDS011;66072;50.238;19.228;2023-03-23T15:14:23;5.80;;;3.30;;
77117;SDS011;66072;50.238;19.228;2023-03-23T15:16:54;6.20;;;3.40;;
77117;SDS011;66072;50.238;19.228;2023-03-23T15:19:36;6.90;;;4.00;;
77117;SDS011;66072;50.238;19.228;2023-03-23T15:22:26;7.20;;;3.00;;
77117;SDS011;66072;50.238;19.228;2023-03-23T15:32:53;5.50;;;2.90;;
77117;SDS011;66072;50.238;19.228;2023-03-23T15:35:27;5.20;;;3.20;;
77117;SDS011;66072;50.238;19.228;2023-03-23T15:39:48;7.60;;;4.10;;
77117;SDS011;66072;50.238;19.228;2023-03-23T15:42:26;10.00;;;4.70;;
77117;SDS011;66072;50.238;19.228;2023-03-23T15:45:15;7.80;;;4.00;;
77117;SDS011;66072;50.238;19.228;2023-03-23T15:47:48;11.60;;;5.70;;
77117;SDS011;66072;50.238;19.228;2023-03-23T15:50:16;8.70;;;4.20;;
77117;SDS011;66072;50.238;19.228;2023-03-23T15:52:46;8.70;;;3.90;;
77117;SDS011;66072;50.238;19.228;2023-03-23T15:57:46;7.50;;;4.60;;
77117;SDS011;66072;50.238;19.228;2023-03-23T16:00:12;7.70;;;4.00;;
77117;SDS011;66072;50.238;19.228;2023-03-23T16:02:41;8.60;;;4.10;;
77117;SDS011;66072;50.238;19.228;2023-03-23T16:05:10;8.30;;;4.70;;
77117;SDS011;66072;50.238;19.228;2023-03-23T16:07:39;8.40;;;3.90;;
77117;SDS011;66072;50.238;19.228;2023-03-23T16:10:09;7.10;;;3.30;;
77117;SDS011;66072;50.238;19.228;2023-03-23T16:12:42;8.90;;;4.40;;
77117;SDS011;66072;50.238;19.228;2023-03-23T16:15:11;6.70;;;3.90;;
77117;SDS011;66072;50.238;19.228;2023-03-23T16:17:42;5.10;;;3.10;;
77117;SDS011;66072;50.238;19.228;2023-03-23T16:20:15;5.50;;;2.90;;
77117;SDS011;66072;50.238;19.228;2023-03-23T16:22:45;9.00;;;3.30;;
77117;SDS011;66072;50.238;19.228;2023-03-23T16:25:13;5.80;;;3.00;;
77117;SDS011;66072;50.238;19.228;2023-03-23T16:27:42;5.20;;;2.90;;
77117;SDS011;66072;50.238;19.228;2023-03-23T16:30:13;5.80;;;2.60;;
77117;SDS011;66072;50.238;19.228;2023-03-23T16:32:46;5.90;;;3.00;;
77117;SDS011;66072;50.238;19.228;2023-03-23T16:35:14;5.70;;;2.70;;
77117;SDS011;66072;50.238;19.228;2023-03-23T16:37:46;6.00;;;3.20;;
77117;SDS011;66072;50.238;19.228;2023-03-23T16:40:16;6.40;;;3.60;;
77117;SDS011;66072;50.238;19.228;2023-03-23T16:42:45;6.40;;;3.50;;
77117;SDS011;66072;50.238;19.228;2023-03-23T16:45:13;6.40;;;4.00;;
77117;SDS011;66072;50.238;19.228;2023-03-23T16:47:42;7.40;;;3.40;;
77117;SDS011;66072;50.238;19.228;2023-03-23T16:50:11;14.60;;;5.90;;
77117;SDS011;66072;50.238;19.228;2023-03-23T16:52:41;15.80;;;7.10;;
77117;SDS011;66072;50.238;19.228;2023-03-23T16:55:14;13.20;;;5.30;;
77117;SDS011;66072;50.238;19.228;2023-03-23T16:57:42;13.80;;;6.00;;